createdAt,value
2019-03-17T00:03:09.603Z,0.18
2019-03-17T00:05:35.872Z,0.19
2019-03-17T00:08:02.107Z,0.20
2019-03-17T00:10:28.356Z,0.20
2019-03-17T00:12:54.579Z,0.21
2019-03-17T00:15:20.829Z,0.19
2019-03-17T00:17:47.068Z,0.20
2019-03-17T00:20:13.311Z,0.18
2019-03-17T00:22:39.542Z,0.18
2019-03-17T00:25:09.451Z,0.18
2019-03-17T00:27:34.028Z,0.19
2019-03-17T00:30:00.479Z,0.19
2019-03-17T00:32:26.724Z,0.17
2019-03-17T00:34:52.964Z,0.17
2019-03-17T00:37:19.211Z,0.18
2019-03-17T00:39:45.444Z,0.17
2019-03-17T00:42:11.691Z,0.18
2019-03-17T00:44:37.935Z,0.14
2019-03-17T00:47:04.187Z,0.16
2019-03-17T00:49:30.404Z,0.14
2019-03-17T00:51:56.643Z,0.13
2019-03-17T00:54:22.895Z,0.13
2019-03-17T00:56:49.147Z,0.13
2019-03-17T00:59:15.405Z,-0.42
2019-03-17T01:01:41.650Z,0.15
2019-03-17T01:04:07.924Z,0.17
2019-03-17T01:06:34.269Z,0.17
2019-03-17T01:09:00.496Z,0.16
2019-03-17T01:11:26.751Z,0.17
2019-03-17T01:13:53.005Z,0.17
2019-03-17T01:16:19.252Z,0.16
2019-03-17T01:18:45.478Z,0.17
2019-03-17T01:21:11.730Z,0.18
2019-03-17T01:23:37.959Z,0.16
2019-03-17T01:26:04.208Z,0.16
2019-03-17T01:28:30.461Z,0.16
2019-03-17T01:30:56.697Z,0.16
2019-03-17T01:33:22.950Z,0.18
2019-03-17T01:35:49.172Z,0.19
2019-03-17T01:38:15.420Z,0.19
2019-03-17T01:40:41.646Z,0.18
2019-03-17T01:43:07.892Z,0.18
2019-03-17T01:45:34.108Z,0.18
2019-03-17T01:48:00.354Z,0.20
2019-03-17T01:50:46.360Z,0.20
2019-03-17T01:53:12.615Z,0.19
2019-03-17T01:55:38.873Z,0.17
2019-03-17T01:58:05.122Z,0.15
2019-03-17T02:00:31.356Z,0.15
2019-03-17T02:02:57.649Z,0.12
2019-03-17T02:05:23.891Z,0.10
2019-03-17T02:07:50.145Z,0.12
2019-03-17T02:10:16.384Z,-1.39
2019-03-17T02:12:42.626Z,0.09
2019-03-17T02:15:08.956Z,0.09
2019-03-17T02:17:35.196Z,0.09
2019-03-17T02:20:01.531Z,0.09
2019-03-17T02:22:27.771Z,0.08
2019-03-17T02:24:54.027Z,0.08
2019-03-17T02:27:20.258Z,0.07
2019-03-17T02:29:46.516Z,0.05
2019-03-17T02:32:12.744Z,0.05
2019-03-17T02:34:38.983Z,0.03
2019-03-17T02:37:05.218Z,0.05
2019-03-17T02:39:31.465Z,0.05
2019-03-17T02:41:57.702Z,0.03
2019-03-17T02:44:23.975Z,0.03
2019-03-17T02:46:50.227Z,0.03
2019-03-17T02:49:16.439Z,0.02
2019-03-17T02:51:42.681Z,0.03
2019-03-17T02:54:08.926Z,0.03
2019-03-17T02:56:35.163Z,0.02
2019-03-17T02:59:01.420Z,0.02
2019-03-17T03:01:27.657Z,0.02
2019-03-17T03:03:53.930Z,0.03
2019-03-17T03:06:20.169Z,0.02
2019-03-17T03:08:46.505Z,0.02
2019-03-17T03:11:12.744Z,0.02
2019-03-17T03:13:38.969Z,0.02
2019-03-17T03:16:05.965Z,0.00
2019-03-17T03:18:33.364Z,0.00
2019-03-17T03:20:59.611Z,-0.01
2019-03-17T03:23:25.853Z,-0.01
2019-03-17T03:25:52.111Z,0.02
2019-03-17T03:28:18.334Z,0.02
2019-03-17T03:30:44.592Z,0.03
2019-03-17T03:33:10.827Z,0.03
2019-03-17T03:35:37.075Z,0.03
2019-03-17T03:38:03.334Z,0.03
2019-03-17T03:40:29.551Z,0.02
2019-03-17T03:42:55.783Z,0.02
2019-03-17T03:45:22.022Z,0.02
2019-03-17T03:47:48.257Z,0.03
2019-03-17T03:50:14.503Z,0.03
2019-03-17T03:52:40.742Z,0.03
2019-03-17T03:58:07.485Z,0.02
2019-03-17T04:00:33.745Z,0.00
2019-03-17T04:02:59.975Z,-0.01
2019-03-17T04:05:26.249Z,0.00
2019-03-17T04:07:52.482Z,0.00
2019-03-17T04:10:18.729Z,0.00
2019-03-17T04:12:44.979Z,-0.03
2019-03-17T04:15:11.209Z,-0.02
2019-03-17T04:17:37.488Z,-0.02
2019-03-17T04:22:53.824Z,-0.04
2019-03-17T04:25:20.053Z,-0.04
2019-03-17T04:27:46.312Z,-0.05
2019-03-17T04:30:12.555Z,-0.04
2019-03-17T04:32:38.789Z,-0.03
2019-03-17T04:35:46.327Z,-0.02
2019-03-17T04:38:12.570Z,0.02
2019-03-17T04:40:38.806Z,0.03
2019-03-17T04:43:05.057Z,0.02
2019-03-17T04:45:31.295Z,0.00
2019-03-17T04:47:57.543Z,-0.01
2019-03-17T04:50:23.777Z,-0.02
2019-03-17T04:52:50.013Z,0.00
2019-03-17T04:55:16.245Z,-0.01
2019-03-17T04:57:42.503Z,-0.02
2019-03-17T05:03:22.203Z,-0.02
2019-03-17T05:05:48.448Z,-0.02
2019-03-17T05:08:14.690Z,-0.04
2019-03-17T05:10:40.933Z,-0.05
2019-03-17T05:13:07.204Z,-0.03
2019-03-17T05:15:33.520Z,-0.04
2019-03-17T05:17:59.771Z,-0.03
2019-03-17T05:20:26.005Z,-0.03
2019-03-17T05:22:52.278Z,-0.02
2019-03-17T05:25:18.516Z,-0.01
2019-03-17T05:27:44.755Z,0.02
2019-03-17T05:30:10.979Z,0.02
2019-03-17T05:32:37.227Z,0.04
2019-03-17T05:35:25.008Z,0.03
2019-03-17T05:37:51.264Z,0.04
2019-03-17T05:40:17.491Z,0.07
2019-03-17T05:42:43.738Z,0.09
2019-03-17T05:45:09.973Z,0.08
2019-03-17T05:47:36.197Z,0.09
2019-03-17T05:50:24.031Z,0.08
2019-03-17T05:52:50.272Z,0.09
2019-03-17T05:55:16.520Z,0.09
2019-03-17T05:57:42.763Z,0.08
2019-03-17T06:00:50.332Z,0.06
2019-03-17T06:03:16.583Z,0.07
2019-03-17T06:05:42.846Z,0.08
2019-03-17T06:08:09.076Z,0.09
2019-03-17T06:10:35.327Z,0.12
2019-03-17T06:13:01.568Z,0.14
2019-03-17T06:15:27.839Z,0.15
2019-03-17T06:17:54.080Z,0.14
2019-03-17T06:20:20.323Z,0.03
2019-03-17T06:22:46.554Z,0.12
2019-03-17T06:25:12.800Z,0.12
2019-03-17T06:27:39.039Z,0.13
2019-03-17T06:33:06.477Z,0.19
2019-03-17T06:35:32.732Z,0.19
2019-03-17T06:37:58.981Z,0.17
2019-03-17T06:40:25.240Z,0.16
2019-03-17T06:42:51.475Z,0.16
2019-03-17T06:45:17.723Z,0.17
2019-03-17T06:47:43.997Z,-0.42
2019-03-17T06:50:31.758Z,0.19
2019-03-17T06:52:58.000Z,0.21
2019-03-17T06:55:24.232Z,0.23
2019-03-17T06:57:50.490Z,0.26
2019-03-17T07:00:16.737Z,0.28
2019-03-17T07:02:42.977Z,0.30
2019-03-17T07:05:09.443Z,0.30
2019-03-17T07:07:43.938Z,0.35
2019-03-17T07:13:04.850Z,0.33
2019-03-17T07:15:31.093Z,0.39
2019-03-17T07:17:57.326Z,0.42
2019-03-17T07:20:23.560Z,0.47
2019-03-17T07:22:49.820Z,0.51
2019-03-17T07:25:16.049Z,0.55
2019-03-17T07:27:42.299Z,0.55
2019-03-17T07:30:28.368Z,0.58
2019-03-17T07:32:54.614Z,0.64
2019-03-17T07:35:20.843Z,0.72
2019-03-17T07:37:56.169Z,0.73
2019-03-17T07:40:15.220Z,0.76
2019-03-17T07:42:41.469Z,0.80
2019-03-17T07:45:29.261Z,0.92
2019-03-17T07:47:55.517Z,0.95
2019-03-17T07:50:21.759Z,0.89
2019-03-17T07:52:48.030Z,0.93
2019-03-17T07:55:14.267Z,0.87
2019-03-17T07:57:40.528Z,0.82
2019-03-17T08:00:31.758Z,0.88
2019-03-17T08:03:07.405Z,0.87
2019-03-17T08:05:33.669Z,0.75
2019-03-17T08:08:08.770Z,0.67
2019-03-17T08:10:28.156Z,0.59
2019-03-17T08:12:54.407Z,0.56
2019-03-17T08:15:20.640Z,0.65
2019-03-17T08:17:46.891Z,0.68
2019-03-17T08:20:13.385Z,0.67
2019-03-17T08:22:39.654Z,0.61
2019-03-17T08:25:25.733Z,0.68
2019-03-17T08:27:52.024Z,0.74
2019-03-17T08:30:18.258Z,0.80
2019-03-17T08:32:44.500Z,0.85
2019-03-17T08:35:10.832Z,0.89
2019-03-17T08:37:37.097Z,0.82
2019-03-17T08:40:23.083Z,0.70
2019-03-17T08:42:49.385Z,0.66
2019-03-17T08:45:15.617Z,0.64
2019-03-17T08:47:41.845Z,0.56
2019-03-17T08:50:49.394Z,0.48
2019-03-17T08:53:15.651Z,0.40
2019-03-17T08:55:41.897Z,0.39
2019-03-17T08:58:08.136Z,0.44
2019-03-17T09:00:34.682Z,0.46
2019-03-17T09:03:00.924Z,0.45
2019-03-17T09:05:27.192Z,0.45
2019-03-17T09:07:53.431Z,0.47
2019-03-17T09:10:19.690Z,0.49
2019-03-17T09:12:45.925Z,0.61
2019-03-17T09:15:12.178Z,0.64
2019-03-17T09:17:38.432Z,0.64
2019-03-17T09:20:45.991Z,0.58
2019-03-17T09:23:12.231Z,0.66
2019-03-17T09:25:38.483Z,0.75
2019-03-17T09:28:04.719Z,0.73
2019-03-17T09:30:31.026Z,0.63
2019-03-17T09:32:57.575Z,0.57
2019-03-17T09:35:23.831Z,0.55
2019-03-17T09:37:50.105Z,0.41
2019-03-17T09:40:38.109Z,0.42
2019-03-17T09:43:04.367Z,0.36
2019-03-17T09:45:30.633Z,0.36
2019-03-17T09:47:56.870Z,0.37
2019-03-17T09:50:23.182Z,0.33
2019-03-17T09:52:49.423Z,0.33
2019-03-17T09:55:15.828Z,0.40
2019-03-17T09:58:01.926Z,0.40
2019-03-17T10:00:28.184Z,0.41
2019-03-17T10:02:54.438Z,0.35
2019-03-17T10:05:20.688Z,0.26
2019-03-17T10:07:46.949Z,0.37
2019-03-17T10:10:54.484Z,0.42
2019-03-17T10:13:20.718Z,0.41
2019-03-17T10:15:46.972Z,0.22
2019-03-17T10:18:13.208Z,0.18
2019-03-17T10:20:39.449Z,0.06
2019-03-17T10:23:05.698Z,0.21
2019-03-17T10:25:31.955Z,0.20
2019-03-17T10:27:58.187Z,0.09
2019-03-17T10:30:24.426Z,0.09
2019-03-17T10:32:50.699Z,0.18
2019-03-17T10:35:16.931Z,0.11
2019-03-17T10:37:43.290Z,0.20
2019-03-17T10:40:29.313Z,0.23
2019-03-17T10:42:55.560Z,0.23
2019-03-17T10:45:21.808Z,0.18
2019-03-17T10:47:48.060Z,0.19
2019-03-17T10:50:55.602Z,0.15
2019-03-17T10:53:22.006Z,0.17
2019-03-17T10:55:48.670Z,0.15
2019-03-17T10:58:14.912Z,0.11
2019-03-17T11:03:26.998Z,0.02
2019-03-17T11:05:54.573Z,0.00
2019-03-17T11:10:50.273Z,0.03
2019-03-17T11:13:16.544Z,0.05
2019-03-17T11:15:42.881Z,0.12
2019-03-17T11:18:09.301Z,0.16
2019-03-17T11:20:35.746Z,0.22
2019-03-17T11:23:02.188Z,0.21
2019-03-17T11:25:28.512Z,0.16
2019-03-17T11:27:54.824Z,0.18
2019-03-17T11:30:21.372Z,0.23
2019-03-17T11:32:47.775Z,0.17
2019-03-17T11:35:14.134Z,0.22
2019-03-17T11:37:40.401Z,0.22
2019-03-17T11:40:26.380Z,0.25
2019-03-17T11:42:52.641Z,0.17
2019-03-17T11:48:09.935Z,0.00
2019-03-17T11:50:36.167Z,-0.02
2019-03-17T11:53:02.418Z,0.05
2019-03-17T11:55:28.650Z,0.07
2019-03-17T11:57:54.885Z,0.06
2019-03-17T12:01:02.434Z,0.18
2019-03-17T12:03:28.706Z,0.08
2019-03-17T12:05:54.950Z,0.06
2019-03-17T12:08:21.184Z,0.06
2019-03-17T12:10:47.431Z,0.00
2019-03-17T12:13:13.680Z,-0.01
2019-03-17T12:15:39.948Z,-0.05
2019-03-17T12:18:06.177Z,-0.02
2019-03-17T12:20:32.424Z,-0.04
2019-03-17T12:22:58.664Z,-0.05
2019-03-17T12:25:24.899Z,0.04
2019-03-17T12:27:51.133Z,0.07
2019-03-17T12:30:37.135Z,0.06
2019-03-17T12:33:03.369Z,0.04
2019-03-17T12:35:29.606Z,0.13
2019-03-17T12:37:55.851Z,0.19
2019-03-17T12:40:22.108Z,0.22
2019-03-17T12:42:48.350Z,0.20
2019-03-17T12:45:14.792Z,0.05
2019-03-17T12:47:41.038Z,0.08
2019-03-17T12:50:48.574Z,-0.05
2019-03-17T12:53:14.805Z,-0.10
2019-03-17T12:55:41.060Z,-0.19
2019-03-17T12:58:07.301Z,-0.26
2019-03-17T13:00:33.557Z,-0.22
2019-03-17T13:02:59.789Z,-0.26
2019-03-17T13:05:26.055Z,-0.30
2019-03-17T13:07:52.289Z,-1.00
2019-03-17T13:10:40.091Z,-0.29
2019-03-17T13:13:06.323Z,-0.31
2019-03-17T13:15:32.570Z,-0.33
2019-03-17T13:17:58.816Z,-0.30
2019-03-17T13:20:25.066Z,-0.27
2019-03-17T13:22:51.304Z,-0.28
2019-03-17T13:25:17.535Z,-0.27
2019-03-17T13:27:43.790Z,-0.30
2019-03-17T13:30:29.794Z,-0.30
2019-03-17T13:32:56.016Z,-0.32
2019-03-17T13:35:22.259Z,-0.33
2019-03-17T13:37:48.510Z,-0.39
2019-03-17T13:40:56.057Z,-0.42
2019-03-17T13:43:22.287Z,-0.46
2019-03-17T13:45:48.544Z,-0.53
2019-03-17T13:48:14.785Z,-0.49
2019-03-17T13:50:41.013Z,-0.48
2019-03-17T13:53:07.255Z,-0.52
2019-03-17T13:55:33.488Z,-0.55
2019-03-17T13:58:41.042Z,-0.59
2019-03-17T14:01:07.267Z,-0.59
2019-03-17T14:03:33.510Z,-0.63
2019-03-17T14:05:59.763Z,-0.64
2019-03-17T14:08:26.023Z,-0.64
2019-03-17T14:10:52.257Z,-0.66
2019-03-17T14:13:18.590Z,-0.70
2019-03-17T14:15:44.813Z,-0.69
2019-03-17T14:18:11.040Z,-0.74
2019-03-17T14:20:37.284Z,-0.75
2019-03-17T14:23:03.524Z,-0.73
2019-03-17T14:28:43.308Z,-0.65
2019-03-17T14:31:09.588Z,-0.65
2019-03-17T14:33:35.842Z,-0.64
2019-03-17T14:36:02.070Z,-0.66
2019-03-17T14:38:28.320Z,-0.70
2019-03-17T14:40:57.119Z,-0.69
2019-03-17T14:43:22.795Z,-0.70
2019-03-17T14:45:49.067Z,-0.72
2019-03-17T14:48:15.324Z,-0.75
2019-03-17T14:50:41.555Z,-0.78
2019-03-17T14:53:07.809Z,-0.81
2019-03-17T14:55:34.032Z,-0.82
2019-03-17T14:58:00.271Z,-0.79
2019-03-17T15:00:26.530Z,-0.84
2019-03-17T15:02:52.757Z,-0.84
2019-03-17T15:05:19.007Z,-0.86
2019-03-17T15:07:45.251Z,-0.85
2019-03-17T15:10:31.228Z,-0.87
2019-03-17T15:12:57.501Z,-0.89
2019-03-17T15:15:23.773Z,-0.90
2019-03-17T15:17:50.001Z,-0.89
2019-03-17T15:20:35.995Z,-0.91
2019-03-17T15:23:02.245Z,-0.93
2019-03-17T15:25:28.502Z,-0.97
2019-03-17T15:27:54.730Z,-0.99
2019-03-17T15:30:40.721Z,-0.99
2019-03-17T15:33:06.967Z,-1.02
2019-03-17T15:35:33.213Z,-1.00
2019-03-17T15:37:59.449Z,-1.01
2019-03-17T15:40:25.708Z,-1.02
2019-03-17T15:42:51.956Z,-1.05
2019-03-17T15:45:39.747Z,-1.07
2019-03-17T15:48:05.981Z,-1.07
2019-03-17T15:50:32.228Z,-1.09
2019-03-17T15:52:58.471Z,-1.10
2019-03-17T15:55:24.729Z,-1.10
2019-03-17T15:57:50.965Z,-1.12
2019-03-17T16:00:36.959Z,-1.12
2019-03-17T16:03:03.313Z,-1.12
2019-03-17T16:05:29.580Z,-1.11
2019-03-17T16:07:55.810Z,-1.11
2019-03-17T16:10:41.799Z,-1.11
2019-03-17T16:13:08.039Z,-1.13
2019-03-17T16:15:34.292Z,-1.14
2019-03-17T16:18:00.525Z,-1.13
2019-03-17T16:21:09.088Z,-1.16
2019-03-17T16:23:36.212Z,-1.16
2019-03-17T16:26:02.461Z,-1.15
2019-03-17T16:28:35.464Z,-1.15
2019-03-17T16:31:01.699Z,-1.16
2019-03-17T16:33:27.935Z,-1.15
2019-03-17T16:35:54.321Z,-1.15
2019-03-17T16:38:20.558Z,-1.16
2019-03-17T16:40:46.806Z,-1.14
2019-03-17T16:43:13.032Z,-1.15
2019-03-17T16:45:39.280Z,-1.13
2019-03-17T16:48:05.514Z,-1.13
2019-03-17T16:50:31.736Z,-1.14
2019-03-17T16:52:57.977Z,-1.14
2019-03-17T16:55:24.208Z,-1.14
2019-03-17T16:57:50.447Z,-1.14
2019-03-17T17:00:36.436Z,-1.16
2019-03-17T17:03:02.681Z,-1.16
2019-03-17T17:05:28.942Z,-1.17
2019-03-17T17:07:55.180Z,-1.16
2019-03-17T17:13:35.168Z,-1.18
2019-03-17T17:16:01.412Z,-1.76
2019-03-17T17:18:27.655Z,-1.17
2019-03-17T17:20:53.888Z,-1.18
2019-03-17T17:23:20.130Z,-1.17
2019-03-17T17:25:46.358Z,-1.16
2019-03-17T17:28:12.593Z,-1.15
2019-03-17T17:30:38.822Z,-1.14
2019-03-17T17:33:05.075Z,-1.11
2019-03-17T17:35:31.310Z,-1.12
2019-03-17T17:37:57.545Z,-1.08
2019-03-17T17:41:05.077Z,-1.07
2019-03-17T17:43:31.339Z,-1.05
2019-03-17T17:45:57.592Z,-1.01
2019-03-17T17:48:23.832Z,-0.95
2019-03-17T17:50:50.075Z,-0.94
2019-03-17T17:53:16.331Z,-0.91
2019-03-17T17:55:42.564Z,-0.89
2019-03-17T17:58:08.803Z,-0.87
2019-03-17T18:00:54.786Z,-0.86
2019-03-17T18:03:21.055Z,-0.84
2019-03-17T18:05:47.307Z,-0.81
2019-03-17T18:08:13.543Z,-0.80
2019-03-17T18:10:39.779Z,-0.78
2019-03-17T18:13:06.014Z,-0.77
2019-03-17T18:15:32.567Z,-0.75
2019-03-17T18:17:59.011Z,-0.76
2019-03-17T18:20:25.251Z,-0.76
2019-03-17T18:22:51.494Z,-0.72
2019-03-17T18:25:37.497Z,-0.74
2019-03-17T18:28:03.744Z,-0.75
2019-03-17T18:30:30.016Z,-0.75
2019-03-17T18:32:56.247Z,-0.71
2019-03-17T18:35:22.526Z,-0.72
2019-03-17T18:37:50.903Z,-0.69
2019-03-17T18:40:36.639Z,-0.68
2019-03-17T18:43:02.878Z,-0.66
2019-03-17T18:46:10.429Z,-0.60
2019-03-17T18:48:36.685Z,-0.57
2019-03-17T18:51:02.942Z,-0.52
2019-03-17T18:53:29.255Z,-0.46
2019-03-17T18:55:55.906Z,-0.44
2019-03-17T18:58:22.135Z,-0.41
2019-03-17T19:00:48.388Z,-0.37
2019-03-17T19:03:14.629Z,-0.29
2019-03-17T19:05:40.904Z,-0.25
2019-03-17T19:08:07.141Z,-0.20
2019-03-17T19:10:33.392Z,-0.17
2019-03-17T19:12:59.626Z,-0.11
2019-03-17T19:15:25.873Z,-0.05
2019-03-17T19:17:52.114Z,-0.01
2019-03-17T19:20:59.669Z,0.05
2019-03-17T19:23:26.033Z,0.13
2019-03-17T19:25:52.292Z,0.17
2019-03-17T19:28:59.849Z,0.17
2019-03-17T19:31:26.117Z,0.21
2019-03-17T19:33:52.354Z,0.22
2019-03-17T19:36:18.599Z,0.21
2019-03-17T19:38:44.844Z,0.24
2019-03-17T19:41:11.098Z,0.23
2019-03-17T19:43:37.338Z,0.24
2019-03-17T19:46:03.598Z,0.23
2019-03-17T19:48:29.832Z,0.24
2019-03-17T19:50:56.079Z,0.24
2019-03-17T19:53:22.326Z,0.25
2019-03-17T19:55:48.556Z,0.27
2019-03-17T19:58:14.804Z,0.25
2019-03-17T20:00:41.035Z,0.26
2019-03-17T20:03:07.268Z,0.25
2019-03-17T20:05:33.520Z,0.27
2019-03-17T20:07:59.761Z,0.26
2019-03-17T20:10:45.750Z,0.27
2019-03-17T20:13:12.321Z,0.26
2019-03-17T20:15:40.137Z,0.29
2019-03-17T20:18:06.390Z,0.27
2019-03-17T20:20:32.625Z,0.28
2019-03-17T20:22:58.870Z,0.27
2019-03-17T20:25:25.120Z,0.29
2019-03-17T20:27:51.379Z,0.29
2019-03-17T20:30:58.916Z,0.28
2019-03-17T20:33:25.184Z,0.29
2019-03-17T20:35:51.417Z,0.28
2019-03-17T20:38:17.667Z,0.29
2019-03-17T20:40:43.907Z,0.31
2019-03-17T20:43:20.196Z,0.29
2019-03-17T20:45:38.293Z,0.30
2019-03-17T20:48:04.572Z,0.30
2019-03-17T20:50:30.878Z,0.30
2019-03-17T20:52:57.128Z,0.29
2019-03-17T20:55:23.356Z,0.30
2019-03-17T20:57:49.586Z,0.31
2019-03-17T21:00:37.385Z,0.30
2019-03-17T21:03:03.645Z,0.31
2019-03-17T21:05:29.895Z,0.31
2019-03-17T21:07:56.124Z,0.29
2019-03-17T21:10:22.380Z,0.29
2019-03-17T21:12:48.607Z,0.29
2019-03-17T21:15:56.152Z,0.28
2019-03-17T21:18:22.395Z,0.23
2019-03-17T21:20:48.651Z,0.26
2019-03-17T21:23:14.885Z,0.27
2019-03-17T21:25:41.147Z,0.26
2019-03-17T21:28:07.377Z,0.27
2019-03-17T21:30:33.619Z,0.27
2019-03-17T21:32:59.847Z,0.26
2019-03-17T21:35:26.086Z,0.27
2019-03-17T21:37:52.316Z,0.26
2019-03-17T21:40:18.551Z,0.27
2019-03-17T21:42:44.781Z,0.28
2019-03-17T21:45:52.332Z,0.29
2019-03-17T21:48:18.573Z,0.29
2019-03-17T21:50:44.819Z,0.29
2019-03-17T21:53:11.051Z,0.30
2019-03-17T21:55:37.296Z,0.32
2019-03-17T21:58:08.067Z,0.30
2019-03-17T22:00:31.702Z,0.31
2019-03-17T22:02:57.940Z,0.30
2019-03-17T22:05:24.180Z,0.31
2019-03-17T22:07:51.243Z,0.30
2019-03-17T22:13:15.280Z,0.29
2019-03-17T22:15:41.532Z,0.25
2019-03-17T22:18:07.765Z,0.26
2019-03-17T22:20:34.014Z,0.26
2019-03-17T22:23:00.245Z,0.26
2019-03-17T22:25:26.496Z,0.26
2019-03-17T22:27:52.734Z,0.25
2019-03-17T22:31:00.288Z,0.24
2019-03-17T22:33:26.539Z,0.25
2019-03-17T22:35:52.786Z,0.25
2019-03-17T22:38:19.012Z,0.26
2019-03-17T22:40:45.260Z,0.24
2019-03-17T22:43:11.491Z,0.23
2019-03-17T22:45:37.732Z,0.24
2019-03-17T22:48:03.977Z,0.21
2019-03-17T22:50:30.205Z,0.21
2019-03-17T22:52:56.449Z,0.22
2019-03-17T22:55:22.691Z,0.20
2019-03-17T22:57:48.937Z,0.20
2019-03-17T23:00:56.486Z,0.20
2019-03-17T23:03:22.734Z,0.20
2019-03-17T23:05:48.988Z,0.20
2019-03-17T23:08:15.234Z,0.19
2019-03-17T23:10:41.462Z,0.21
2019-03-17T23:13:07.707Z,0.19
2019-03-17T23:15:35.776Z,0.18
2019-03-17T23:18:02.085Z,0.17
2019-03-17T23:20:28.314Z,0.18
2019-03-17T23:22:54.558Z,0.19
2019-03-17T23:25:20.784Z,0.21
2019-03-17T23:27:47.026Z,0.20
2019-03-17T23:30:33.049Z,0.23
2019-03-17T23:32:59.293Z,0.22
2019-03-17T23:35:25.520Z,0.25
2019-03-17T23:37:51.773Z,0.27
2019-03-17T23:40:18.017Z,0.26
2019-03-17T23:42:44.268Z,0.27
2019-03-17T23:48:24.142Z,0.24
2019-03-17T23:50:50.420Z,0.22
2019-03-17T23:53:16.669Z,0.23
2019-03-17T23:55:42.939Z,0.23
2019-03-17T23:58:09.175Z,0.22
